• Join FlightAware (Why Join?)
  • Login
  • US Flag 
08:36PM EDT


 

Airport Tracker/Info


-or-


 

Live Flight TrackerFlight Track Log ✈ UAL335 ✈ 20-Apr-2013 ✈ KDEN - KTPA

Flight Track Log - Related Links

Times and Time Zones

All times are in EDT time to prevent confusion due to time zone crossing. See the UAL335 flight status page for this flight to view local times or setup timezone preferences in your user account.

Time Position Orientation Groundspeed Altitude Reporting Facility
EDT Latitude Longitude Course Direction KTS MPH feet Rate Location/Type
12:15PM 39.8833 -104.6000 110° East 178 205 6,500  Level Denver TRACON
12:16PM 39.8508 -104.5131 116° Southeast 226 260 8,000 1,620 Climbing Denver Center
12:17PM 39.8192 -104.4222 114° Southeast 275 316 10,200 1,680 Climbing Denver Center
12:18PM 39.6653 -104.0446 108° East  Level FlightAware Approximate
12:18PM 39.7828 -104.3144 114° Southeast 325 374 11,500  Level Denver Center
12:19PM 39.6154 -103.8910 116° Southeast  Level FlightAware Approximate
12:19PM 39.7372 -104.1836 114° Southeast 367 422 13,700  Level Denver Center
12:20PM 39.5696 -103.7352 110° East  Level FlightAware Approximate
12:20PM 39.6933 -104.0583 114° Southeast 386 444 16,000  Level Denver Center
12:21PM 39.6417 -103.9208 116° Southeast 397 457 18,400 2,100 Climbing Denver Center
12:22PM 39.5911 -103.7928 117° Southeast 399 459 20,400 1,560 Climbing Denver Center
12:23PM 39.5558 -103.6597 109° East 394 453 21,700 1,260 Climbing Denver Center
12:24PM 39.5181 -103.5114 108° East 427 491 23,100 1,320 Climbing Denver Center
12:25PM 39.4786 -103.3608 109° East 435 501 24,500 1,500 Climbing Denver Center
12:26PM 39.4308 -103.1839 109° East 444 511 26,200 1,380 Climbing Denver Center
12:27PM 39.3911 -103.0292 108° East 450 518 27,400 1,320 Climbing Denver Center
12:29PM 39.3475 -102.8728 110° East 456 525 29,000 1,380 Climbing Denver Center
12:30PM 39.3072 -102.7250 109° East 450 518 30,300 960 Climbing Denver Center
12:31PM 39.2631 -102.5619 109° East 447 514 31,000 300 Climbing Denver Center
12:32PM 39.2103 -102.4283 117° Southeast 442 509 31,000  Level Denver Center
12:33PM 39.1169 -102.2986 133° Southeast 442 509 31,000 120 Level Denver Center
12:34PM 39.0356 -102.1911 134° Southeast 438 504 31,300 480 Climbing Denver Center
12:35PM 38.9403 -102.0628 134° Southeast 444 511 32,000 720 Climbing Denver Center
12:36PM 38.8561 -101.9489 133° Southeast 455 524 32,800 900 Climbing Denver Center
12:37PM 38.7561 -101.8186 135° Southeast 458 527 33,900 780 Climbing Denver Center
12:38PM 38.6714 -101.7056 134° Southeast 461 531 34,500 480 Climbing Denver Center
12:39PM 38.5706 -101.5717 134° Southeast 466 536 35,000 240 Climbing Denver Center
12:40PM 38.4847 -101.4594 134° Southeast 462 532 35,000  Level Denver Center
12:41PM 38.3836 -101.3278 134° Southeast 464 534 35,000  Level Denver Center
12:42PM 38.2964 -101.2142 134° Southeast 468 539 35,000  Level Denver Center
12:43PM 38.2089 -101.1000 134° Southeast 472 543 35,000  Level Denver Center
12:44PM 38.1061 -100.9678 135° Southeast 470 541 35,000  Level Denver Center
12:45PM 38.0183 -100.8544 134° Southeast 469 540 35,000  Level Denver Center
12:46PM 37.9744 -100.7975 134° Southeast 467 537 35,000  Level Kansas City Center
12:47PM 37.8714 -100.6650 135° Southeast 467 537 35,000  Level Kansas City Center
12:48PM 37.7808 -100.5492 135° Southeast 468 539 35,000  Level Kansas City Center
12:49PM 37.6789 -100.4214 135° Southeast 467 537 35,000  Level Kansas City Center
12:50PM 37.5906 -100.3094 135° Southeast 468 539 35,000  Level Kansas City Center
12:51PM 37.5025 -100.1986 135° Southeast 466 536 35,000  Level Kansas City Center
12:52PM 37.3997 -100.0683 135° Southeast 467 537 35,000  Level Kansas City Center
12:53PM 37.3111 -99.9575 135° Southeast 469 540 35,000  Level Kansas City Center
12:54PM 37.2075 -99.8303 136° Southeast 467 537 35,000  Level Kansas City Center
12:55PM 37.1189 -99.7211 135° Southeast 467 537 35,000  Level Kansas City Center
12:56PM 37.0219 -99.6006 135° Southeast 468 539 35,000  Level Kansas City Center
12:57PM 36.9286 -99.4836 135° Southeast 472 543 35,000  Level Kansas City Center
12:58PM 36.8342 -99.3672 135° Southeast 474 545 35,000  Level Kansas City Center
12:59PM 36.7397 -99.2533 136° Southeast 472 543 35,000  Level Kansas City Center
01:00PM 36.6444 -99.1369 136° Southeast 474 545 35,000  Level Kansas City Center
01:01PM 36.5494 -99.0206 135° Southeast 475 547 35,000  Level Kansas City Center
01:02PM 36.4525 -98.9053 136° Southeast 476 548 35,000  Level Kansas City Center
01:03PM 36.3567 -98.7883 135° Southeast 477 549 35,000  Level Kansas City Center
01:04PM 36.2397 -98.6497 136° Southeast 478 550 35,000  Level Kansas City Center
01:05PM 36.1442 -98.5331 135° Southeast 478 550 35,000  Level Kansas City Center
01:06PM 36.0478 -98.4192 136° Southeast 476 548 35,000  Level Kansas City Center
01:07PM 35.9503 -98.3050 137° Southeast 477 549 35,000  Level Kansas City Center
01:09PM 35.7692 -98.0914 136° Southeast 477 549 35,000  Level Fort Worth Center
01:10PM 35.6822 -97.9911 137° Southeast 477 549 35,000  Level Fort Worth Center
01:11PM 35.5847 -97.8781 137° Southeast 477 549 35,000  Level Fort Worth Center
01:12PM 35.4892 -97.7653 136° Southeast 477 549 35,000  Level Fort Worth Center
01:13PM 35.3811 -97.6403 137° Southeast 483 556 35,000  Level Fort Worth Center
01:14PM 35.2894 -97.5128 131° Southeast 483 556 35,000  Level Fort Worth Center
01:15PM 35.2081 -97.3756 126° Southeast 490 564 35,000  Level Fort Worth Center
01:16PM 35.1203 -97.2461 130° Southeast 495 570 35,000  Level Fort Worth Center
01:17PM 35.0325 -97.1144 129° Southeast 495 570 35,000  Level Fort Worth Center
01:18PM 34.9467 -96.9828 128° Southeast 495 570 35,000  Level Fort Worth Center
01:19PM 34.8606 -96.8542 129° Southeast 495 570 35,000  Level Fort Worth Center
01:20PM 34.7744 -96.7233 129° Southeast 495 570 35,000  Level Fort Worth Center
01:21PM 34.6903 -96.5928 128° Southeast 495 570 35,000  Level Fort Worth Center
01:22PM 34.6039 -96.4650 129° Southeast 495 570 35,000  Level Fort Worth Center
01:23PM 34.5172 -96.3347 129° Southeast 495 570 35,000  Level Fort Worth Center
01:24PM 34.4306 -96.2075 130° Southeast 495 570 35,000  Level Fort Worth Center
01:25PM 34.3458 -96.0778 128° Southeast 495 570 35,000  Level Fort Worth Center
01:26PM 34.2650 -95.9458 127° Southeast 495 570 35,000  Level Fort Worth Center
01:27PM 34.1800 -95.8144 128° Southeast 495 570 35,000  Level Fort Worth Center
01:28PM 34.0967 -95.6856 128° Southeast 495 570 35,000  Level Fort Worth Center
01:29PM 34.0242 -95.5642 126° Southeast 495 570 35,000  Level Fort Worth Center
01:30PM 33.9408 -95.4381 129° Southeast 490 564 35,000  Level Fort Worth Center
01:31PM 33.8553 -95.3075 128° Southeast 490 564 35,000  Level Fort Worth Center
01:32PM 33.7631 -95.1672 128° Southeast 490 564 35,000  Level Fort Worth Center
01:33PM 33.6814 -95.0372 127° Southeast 485 558 35,000  Level Fort Worth Center
01:34PM 33.5975 -94.9097 128° Southeast 485 558 35,000  Level Fort Worth Center
01:35PM 33.5133 -94.7775 127° Southeast 491 565 35,000  Level Fort Worth Center
01:36PM 33.4314 -94.6531 128° Southeast 486 559 35,000  Level Fort Worth Center
01:37PM 33.3558 -94.5386 128° Southeast 485 558 35,000  Level Fort Worth Center
01:38PM 33.2714 -94.4122 129° Southeast 485 558 35,000  Level Fort Worth Center
01:39PM 33.1931 -94.2808 125° Southeast 485 558 35,000  Level Fort Worth Center
01:40PM 33.1186 -94.1469 124° Southeast 490 564 35,000  Level Fort Worth Center
01:41PM 33.0442 -94.0083 123° Southeast 490 564 35,000  Level Fort Worth Center
01:42PM 32.9714 -93.8725 123° Southeast 490 564 35,000  Level Fort Worth Center
01:43PM 32.8964 -93.7344 123° Southeast 490 564 35,000  Level Fort Worth Center
01:44PM 32.8236 -93.5992 123° Southeast 490 564 35,000  Level Fort Worth Center
01:45PM 32.7525 -93.4639 122° Southeast 490 564 35,000  Level Fort Worth Center
01:46PM 32.6794 -93.3314 123° Southeast 490 564 35,000  Level Fort Worth Center
01:47PM 32.6042 -93.1992 124° Southeast 490 564 35,000  Level Fort Worth Center
01:48PM 32.5328 -93.0619 122° Southeast 490 564 35,000  Level Fort Worth Center
01:50PM 32.3544 -92.7525 124° Southeast 487 560 35,000  Level Houston Center
01:51PM 32.2731 -92.6108 124° Southeast 494 568 35,000  Level Houston Center
01:52PM 32.1969 -92.4747 123° Southeast 496 571 35,000  Level Houston Center
01:54PM 32.1039 -92.3097 124° Southeast 501 577 35,000 -60 Level Houston Center
01:55PM 32.0269 -92.1747 124° Southeast 497 572 34,900 -60 Descending Houston Center
01:56PM 31.9506 -92.0403 124° Southeast 493 567 34,900  Level Houston Center
01:57PM 31.8747 -91.9072 124° Southeast 501 577 35,000  Climbing Houston Center
01:58PM 31.7961 -91.7733 125° Southeast 496 571 35,000  Level Houston Center
01:59PM 31.7031 -91.6108 124° Southeast 497 572 35,000  Level Houston Center
02:00PM 31.6247 -91.4767 124° Southeast 498 573 35,100  Climbing Houston Center
02:01PM 31.5478 -91.3447 124° Southeast 491 565 35,000 -60 Descending Houston Center
02:02PM 31.4711 -91.2122 124° Southeast 490 564 35,000 -60 Level Houston Center
02:03PM 31.3922 -91.0772 124° Southeast 486 559 34,900 -60 Descending Houston Center
02:04PM 31.3156 -90.9467 124° Southeast 487 560 34,900  Level Houston Center
02:05PM 31.2372 -90.8156 125° Southeast 492 566 34,900  Level Houston Center
02:06PM 31.1603 -90.6842 124° Southeast 490 564 35,000  Climbing Houston Center
02:07PM 31.0658 -90.5261 125° Southeast 495 570 35,000  Level Houston Center
02:08PM 30.9872 -90.3933 125° Southeast 496 571 35,000  Level Houston Center
02:09PM 30.9078 -90.2608 125° Southeast 498 573 35,000 -60 Level Houston Center
02:10PM 30.8283 -90.1294 125° Southeast 497 572 34,900  Descending Houston Center
02:11PM 30.7486 -89.9967 125° Southeast 498 573 35,000  Climbing Houston Center
02:12PM 30.6681 -89.8650 125° Southeast 497 572 35,000  Level Houston Center
02:13PM 30.5872 -89.7322 125° Southeast 497 572 35,000 -60 Level Houston Center
02:14PM 30.5064 -89.5992 125° Southeast 495 570 34,900 -60 Descending Houston Center
02:15PM 30.4072 -89.4425 126° Southeast 494 568 34,900  Level Houston Center
02:16PM 30.3269 -89.3122 126° Southeast 494 568 34,900  Level Houston Center
02:17PM 30.2439 -89.1806 126° Southeast 504 580 34,900  Level Houston Center
02:18PM 30.1633 -89.0511 126° Southeast 498 573 35,000  Climbing Houston Center
02:19PM 30.0833 -88.9208 125° Southeast 497 572 35,000  Level Houston Center
02:20PM 30.0028 -88.7925 126° Southeast 494 568 35,000 660 Level Houston Center
02:21PM 29.9144 -88.6514 126° Southeast 482 555 36,400 900 Climbing Houston Center
02:22PM 29.8292 -88.5189 127° Southeast 480 552 36,900 240 Climbing Houston Center
02:23PM 29.7500 -88.3922 126° Southeast 485 558 36,900  Level Houston Center
02:25PM 29.6778 -88.2783 126° Southeast 482 555 37,000  Climbing Houston Center
02:26PM 29.5842 -88.1292 126° Southeast 482 555 37,000  Level Houston Center
02:27PM 29.5056 -88.0072 127° Southeast 479 551 37,000  Level Houston Center
02:28PM 29.4333 -87.8792 123° Southeast 477 549 37,000  Level Houston Center
02:29PM 29.3786 -87.7411 114° Southeast 480 552 37,000 -60 Level Houston Center
02:30PM 29.3303 -87.5753 108° East 486 559 36,900 -60 Descending Houston Center
02:31PM 29.2858 -87.4289 109° East 487 560 36,900  Level Houston Center
02:32PM 29.2339 -87.2542 109° East 480 552 37,000  Climbing Jacksonville Center
02:33PM 29.1908 -87.1047 108° East 485 558 37,000  Level Jacksonville Center
02:34PM 29.1417 -86.9553 111° Southeast 492 566 37,000  Level Jacksonville Center
02:35PM 29.0981 -86.8061 108° East 492 566 37,000  Level Jacksonville Center
02:36PM 29.0486 -86.6497 110° East 498 573 37,000  Level Jacksonville Center
02:37PM 29.0028 -86.5008 109° East 498 573 37,000  Level Jacksonville Center
02:38PM 28.9547 -86.3522 110° East 498 573 37,000 -60 Level Jacksonville Center
02:39PM 28.9086 -86.2011 109° East 498 573 36,900 -60 Descending Jacksonville Center
02:40PM 28.8622 -86.0525 110° East 498 573 36,900  Level Jacksonville Center
02:41PM 28.8136 -85.9019 110° East 498 573 36,900  Level Jacksonville Center
02:42PM 28.7669 -85.7536 110° East 492 566 36,900  Level Jacksonville Center
02:43PM 28.7203 -85.6031 109° East 497 572 37,000  Climbing Jacksonville Center
02:45PM 28.6286 -85.3139 110° East 506 582 36,900  Descending Miami Center
02:46PM 28.5828 -85.1689 110° East 499 574 37,000  Climbing Miami Center
02:47PM 28.5353 -85.0214 110° East 494 568 37,000 -60 Level Miami Center
02:48PM 28.4892 -84.8767 110° East 494 568 36,900 -420 Descending Miami Center
02:49PM 28.4408 -84.7342 111° Southeast 489 563 36,200 -2,220 Descending Miami Center
02:50PM 28.3928 -84.5844 110° East 489 563 32,500 -3,960 Descending Miami Center
02:51PM 28.3428 -84.4281 110° East 504 580 28,300 -3,240 Descending Miami Center
02:52PM 28.2922 -84.2786 111° Southeast 509 586 26,100 -2,100 Descending Miami Center
02:53PM 28.2350 -84.1361 114° Southeast 501 577 24,200 -2,100 Descending Miami Center
02:54PM 28.1939 -84.0017 109° East 480 552 22,000 -2,400 Descending Miami Center
02:55PM 28.1483 -83.8669 111° Southeast 460 529 19,500 -2,280 Descending Miami Center
02:56PM 28.1064 -83.7397 110° East 449 517 17,500 -1,920 Descending Miami Center
02:57PM 28.0686 -83.6175 109° East 429 494 15,700 -2,100 Descending Miami Center
02:58PM 28.0258 -83.5022 113° Southeast 414 476 13,300 -2,280 Descending Miami Center
02:59PM 27.9875 -83.3872 111° Southeast 397 457 11,200 -1,500 Descending Miami Center
03:00PM 27.9525 -83.2819 111° Southeast 381 438 10,300 -1,020 Descending Miami Center
03:01PM 27.9211 -83.1908 111° Southeast 345 397 9,200 -1,320 Descending Miami Center
03:02PM 27.9397 -83.1003 77° East 285 328 7,700 -1,200 Descending Miami Center
03:03PM 27.9769 -83.0131 64° Northeast 293 337 6,900 -420 Descending Miami Center
03:04PM 28.0203 -82.9239 61° Northeast 301 346 6,900  Level Miami Center
03:05PM 28.0550 -82.8411 65° Northeast 301 346 6,900  Level Miami Center
03:05PM 28.0667 -82.8167 62° Northeast 310 357 6,900 60 Level Tampa TRACON
03:06PM 28.1000 -82.7333 66° East 304 350 7,000  Climbing Tampa TRACON
03:07PM 28.0667 -82.6500 114° Southeast 289 333 6,900 -780 Descending Tampa TRACON
03:08PM 27.9833 -82.6167 161° South 278 320 5,400 -1,440 Descending Tampa TRACON
03:09PM 27.9000 -82.6167 180° South 266 306 3,900 -1,020 Descending Tampa TRACON
03:10PM 27.8500 -82.6000 164° South 232 267 3,300 -600 Descending Tampa TRACON